sensor_id;sensor_type;location;lat;lon;timestamp;P1;durP1;ratioP1;P2;durP2;ratioP2
8982;SDS011;20979;59.850;10.660;2023-06-14T00:02:09;3.67;;;3.30;;
8982;SDS011;20979;59.850;10.660;2023-06-14T00:07:43;4.47;;;3.42;;
8982;SDS011;20979;59.850;10.660;2023-06-14T00:10:13;4.32;;;3.20;;
8982;SDS011;20979;59.850;10.660;2023-06-14T00:12:41;4.97;;;3.58;;
8982;SDS011;20979;59.850;10.660;2023-06-14T00:15:23;4.32;;;3.70;;
8982;SDS011;20979;59.850;10.660;2023-06-14T00:17:50;6.95;;;4.05;;
8982;SDS011;20979;59.850;10.660;2023-06-14T00:20:25;5.65;;;3.70;;
8982;SDS011;20979;59.850;10.660;2023-06-14T00:23:18;4.82;;;3.92;;
8982;SDS011;20979;59.850;10.660;2023-06-14T00:32:06;4.25;;;3.50;;
8982;SDS011;20979;59.850;10.660;2023-06-14T00:34:47;5.95;;;3.60;;
8982;SDS011;20979;59.850;10.660;2023-06-14T00:37:15;4.30;;;3.65;;
8982;SDS011;20979;59.850;10.660;2023-06-14T00:39:44;7.53;;;3.97;;
8982;SDS011;20979;59.850;10.660;2023-06-14T00:42:22;4.07;;;3.67;;
8982;SDS011;20979;59.850;10.660;2023-06-14T00:48:27;4.00;;;3.50;;
8982;SDS011;20979;59.850;10.660;2023-06-14T00:50:55;5.05;;;3.70;;
8982;SDS011;20979;59.850;10.660;2023-06-14T00:53:26;5.10;;;4.00;;
8982;SDS011;20979;59.850;10.660;2023-06-14T01:02:11;7.50;;;3.70;;
8982;SDS011;20979;59.850;10.660;2023-06-14T01:04:40;4.68;;;3.60;;
8982;SDS011;20979;59.850;10.660;2023-06-14T01:07:11;5.45;;;3.70;;
8982;SDS011;20979;59.850;10.660;2023-06-14T01:09:43;6.13;;;3.78;;
8982;SDS011;20979;59.850;10.660;2023-06-14T01:12:15;3.80;;;3.45;;
8982;SDS011;20979;59.850;10.660;2023-06-14T01:14:51;4.63;;;4.10;;
8982;SDS011;20979;59.850;10.660;2023-06-14T01:20:29;4.07;;;3.63;;
8982;SDS011;20979;59.850;10.660;2023-06-14T01:23:04;3.92;;;3.63;;
8982;SDS011;20979;59.850;10.660;2023-06-14T01:37:18;5.90;;;3.90;;
8982;SDS011;20979;59.850;10.660;2023-06-14T01:39:50;6.50;;;3.97;;
8982;SDS011;20979;59.850;10.660;2023-06-14T01:42:21;5.07;;;3.95;;
8982;SDS011;20979;59.850;10.660;2023-06-14T01:47:47;4.93;;;4.17;;
8982;SDS011;20979;59.850;10.660;2023-06-14T01:50:51;6.72;;;3.78;;
8982;SDS011;20979;59.850;10.660;2023-06-14T01:53:17;4.30;;;3.90;;
8982;SDS011;20979;59.850;10.660;2023-06-14T02:05:04;4.43;;;3.95;;
8982;SDS011;20979;59.850;10.660;2023-06-14T02:07:45;4.70;;;3.70;;
8982;SDS011;20979;59.850;10.660;2023-06-14T02:10:13;4.32;;;3.90;;
8982;SDS011;20979;59.850;10.660;2023-06-14T02:12:50;4.72;;;4.15;;
8982;SDS011;20979;59.850;10.660;2023-06-14T02:15:28;4.27;;;3.80;;
8982;SDS011;20979;59.850;10.660;2023-06-14T02:18:23;7.07;;;3.80;;
8982;SDS011;20979;59.850;10.660;2023-06-14T02:20:58;4.68;;;4.10;;
8982;SDS011;20979;59.850;10.660;2023-06-14T02:24:58;5.07;;;4.57;;
8982;SDS011;20979;59.850;10.660;2023-06-14T02:26:50;4.33;;;3.93;;
8982;SDS011;20979;59.850;10.660;2023-06-14T02:29:17;4.80;;;4.28;;
8982;SDS011;20979;59.850;10.660;2023-06-14T02:40:50;6.10;;;3.90;;
8982;SDS011;20979;59.850;10.660;2023-06-14T02:43:39;6.90;;;4.10;;
8982;SDS011;20979;59.850;10.660;2023-06-14T02:46:21;4.70;;;4.20;;
8982;SDS011;20979;59.850;10.660;2023-06-14T02:48:48;4.97;;;4.33;;
8982;SDS011;20979;59.850;10.660;2023-06-14T02:51:16;5.82;;;4.25;;
8982;SDS011;20979;59.850;10.660;2023-06-14T02:53:43;4.30;;;3.90;;
8982;SDS011;20979;59.850;10.660;2023-06-14T02:59:03;5.53;;;4.23;;
8982;SDS011;20979;59.850;10.660;2023-06-14T03:10:54;8.77;;;4.10;;
8982;SDS011;20979;59.850;10.660;2023-06-14T03:13:36;4.70;;;4.30;;
8982;SDS011;20979;59.850;10.660;2023-06-14T03:19:03;6.03;;;4.50;;
8982;SDS011;20979;59.850;10.660;2023-06-14T03:21:33;5.13;;;3.80;;
8982;SDS011;20979;59.850;10.660;2023-06-14T03:24:05;6.35;;;4.53;;
8982;SDS011;20979;59.850;10.660;2023-06-14T03:26:32;4.13;;;3.67;;
8982;SDS011;20979;59.850;10.660;2023-06-14T03:41:31;5.13;;;4.05;;
8982;SDS011;20979;59.850;10.660;2023-06-14T03:50:04;6.00;;;4.38;;
8982;SDS011;20979;59.850;10.660;2023-06-14T03:52:32;5.05;;;4.30;;
8982;SDS011;20979;59.850;10.660;2023-06-14T03:55:15;4.50;;;4.10;;
8982;SDS011;20979;59.850;10.660;2023-06-14T03:57:44;4.40;;;4.00;;
8982;SDS011;20979;59.850;10.660;2023-06-14T04:02:54;6.23;;;4.23;;
8982;SDS011;20979;59.850;10.660;2023-06-14T04:05:27;4.63;;;4.22;;
8982;SDS011;20979;59.850;10.660;2023-06-14T04:08:05;5.10;;;4.13;;
8982;SDS011;20979;59.850;10.660;2023-06-14T04:10:34;4.43;;;3.73;;
8982;SDS011;20979;59.850;10.660;2023-06-14T04:13:03;7.10;;;3.90;;
8982;SDS011;20979;59.850;10.660;2023-06-14T04:15:49;5.17;;;4.17;;
8982;SDS011;20979;59.850;10.660;2023-06-14T04:18:31;6.03;;;4.28;;
8982;SDS011;20979;59.850;10.660;2023-06-14T04:20:58;7.80;;;4.35;;
8982;SDS011;20979;59.850;10.660;2023-06-14T04:23:35;4.90;;;4.30;;
8982;SDS011;20979;59.850;10.660;2023-06-14T04:26:06;5.32;;;4.22;;
8982;SDS011;20979;59.850;10.660;2023-06-14T04:28:39;5.47;;;4.70;;
8982;SDS011;20979;59.850;10.660;2023-06-14T04:31:08;6.57;;;4.18;;
8982;SDS011;20979;59.850;10.660;2023-06-14T04:33:36;4.70;;;4.30;;
8982;SDS011;20979;59.850;10.660;2023-06-14T04:36:09;4.45;;;4.00;;
8982;SDS011;20979;59.850;10.660;2023-06-14T04:38:38;4.75;;;4.35;;
8982;SDS011;20979;59.850;10.660;2023-06-14T04:44:07;4.88;;;4.38;;
8982;SDS011;20979;59.850;10.660;2023-06-14T04:46:37;5.10;;;4.43;;
8982;SDS011;20979;59.850;10.660;2023-06-14T04:49:11;7.00;;;4.20;;
8982;SDS011;20979;59.850;10.660;2023-06-14T04:51:41;4.95;;;4.43;;
8982;SDS011;20979;59.850;10.660;2023-06-14T04:54:24;5.68;;;4.15;;
8982;SDS011;20979;59.850;10.660;2023-06-14T04:56:52;5.60;;;4.00;;
8982;SDS011;20979;59.850;10.660;2023-06-14T04:59:22;4.90;;;4.40;;
8982;SDS011;20979;59.850;10.660;2023-06-14T05:04:37;6.88;;;4.82;;
8982;SDS011;20979;59.850;10.660;2023-06-14T05:07:06;5.15;;;4.38;;
8982;SDS011;20979;59.850;10.660;2023-06-14T05:09:34;10.30;;;4.88;;
8982;SDS011;20979;59.850;10.660;2023-06-14T05:12:24;4.78;;;4.25;;
8982;SDS011;20979;59.850;10.660;2023-06-14T05:14:54;7.80;;;5.20;;
8982;SDS011;20979;59.850;10.660;2023-06-14T05:17:50;7.78;;;5.25;;
8982;SDS011;20979;59.850;10.660;2023-06-14T05:20:20;5.68;;;5.07;;
8982;SDS011;20979;59.850;10.660;2023-06-14T05:22:49;5.05;;;4.50;;
8982;SDS011;20979;59.850;10.660;2023-06-14T05:25:35;7.43;;;4.50;;
8982;SDS011;20979;59.850;10.660;2023-06-14T05:33:55;13.55;;;4.38;;
8982;SDS011;20979;59.850;10.660;2023-06-14T05:36:23;6.30;;;4.40;;
8982;SDS011;20979;59.850;10.660;2023-06-14T05:38:51;5.93;;;4.43;;
8982;SDS011;20979;59.850;10.660;2023-06-14T05:41:33;6.13;;;4.50;;
8982;SDS011;20979;59.850;10.660;2023-06-14T05:44:01;5.22;;;4.25;;
8982;SDS011;20979;59.850;10.660;2023-06-14T05:48:00;5.70;;;4.60;;
8982;SDS011;20979;59.850;10.660;2023-06-14T05:58:51;4.35;;;3.95;;
8982;SDS011;20979;59.850;10.660;2023-06-14T06:01:32;5.90;;;3.97;;
8982;SDS011;20979;59.850;10.660;2023-06-14T06:04:04;4.63;;;4.18;;
8982;SDS011;20979;59.850;10.660;2023-06-14T06:07:10;6.18;;;4.07;;
8982;SDS011;20979;59.850;10.660;2023-06-14T06:09:32;5.32;;;4.40;;
8982;SDS011;20979;59.850;10.660;2023-06-14T06:12:00;6.43;;;4.38;;
8982;SDS011;20979;59.850;10.660;2023-06-14T06:14:33;6.53;;;4.93;;
8982;SDS011;20979;59.850;10.660;2023-06-14T06:17:00;6.20;;;5.00;;
8982;SDS011;20979;59.850;10.660;2023-06-14T06:19:28;5.97;;;5.00;;
8982;SDS011;20979;59.850;10.660;2023-06-14T06:21:55;8.65;;;5.40;;
8982;SDS011;20979;59.850;10.660;2023-06-14T06:24:38;7.75;;;5.38;;
8982;SDS011;20979;59.850;10.660;2023-06-14T06:27:05;6.63;;;5.40;;
8982;SDS011;20979;59.850;10.660;2023-06-14T06:29:35;7.18;;;5.50;;
8982;SDS011;20979;59.850;10.660;2023-06-14T06:32:16;5.80;;;5.20;;
8982;SDS011;20979;59.850;10.660;2023-06-14T06:35:07;7.45;;;5.35;;
8982;SDS011;20979;59.850;10.660;2023-06-14T06:37:39;6.63;;;5.25;;
8982;SDS011;20979;59.850;10.660;2023-06-14T06:40:06;5.95;;;5.25;;
8982;SDS011;20979;59.850;10.660;2023-06-14T06:42:35;6.47;;;5.30;;
8982;SDS011;20979;59.850;10.660;2023-06-14T06:45:04;8.68;;;5.13;;
8982;SDS011;20979;59.850;10.660;2023-06-14T06:47:31;5.53;;;4.97;;
8982;SDS011;20979;59.850;10.660;2023-06-14T06:49:59;5.20;;;4.70;;
8982;SDS011;20979;59.850;10.660;2023-06-14T06:52:26;7.53;;;4.90;;
8982;SDS011;20979;59.850;10.660;2023-06-14T06:54:54;8.65;;;5.07;;
8982;SDS011;20979;59.850;10.660;2023-06-14T06:57:22;5.70;;;5.07;;
8982;SDS011;20979;59.850;10.660;2023-06-14T06:59:54;5.60;;;4.95;;
8982;SDS011;20979;59.850;10.660;2023-06-14T07:02:24;5.43;;;4.93;;
8982;SDS011;20979;59.850;10.660;2023-06-14T07:04:51;8.05;;;5.60;;
8982;SDS011;20979;59.850;10.660;2023-06-14T07:07:18;7.22;;;5.53;;
8982;SDS011;20979;59.850;10.660;2023-06-14T07:09:47;7.65;;;5.82;;
8982;SDS011;20979;59.850;10.660;2023-06-14T07:12:15;8.02;;;5.50;;
8982;SDS011;20979;59.850;10.660;2023-06-14T07:14:43;6.65;;;6.05;;
8982;SDS011;20979;59.850;10.660;2023-06-14T07:17:10;6.95;;;5.43;;
8982;SDS011;20979;59.850;10.660;2023-06-14T07:19:39;6.40;;;5.78;;
8982;SDS011;20979;59.850;10.660;2023-06-14T07:22:07;7.80;;;5.85;;
8982;SDS011;20979;59.850;10.660;2023-06-14T07:24:34;9.15;;;5.80;;
8982;SDS011;20979;59.850;10.660;2023-06-14T07:27:02;6.65;;;5.63;;
8982;SDS011;20979;59.850;10.660;2023-06-14T07:29:30;6.65;;;5.85;;
8982;SDS011;20979;59.850;10.660;2023-06-14T07:32:05;6.60;;;5.72;;
8982;SDS011;20979;59.850;10.660;2023-06-14T07:34:32;7.10;;;5.70;;
8982;SDS011;20979;59.850;10.660;2023-06-14T07:37:18;8.70;;;5.60;;
8982;SDS011;20979;59.850;10.660;2023-06-14T07:39:45;7.65;;;5.65;;
8982;SDS011;20979;59.850;10.660;2023-06-14T07:42:14;7.60;;;5.45;;
8982;SDS011;20979;59.850;10.660;2023-06-14T07:44:50;7.25;;;5.20;;
8982;SDS011;20979;59.850;10.660;2023-06-14T07:47:20;6.68;;;5.20;;
8982;SDS011;20979;59.850;10.660;2023-06-14T07:50:07;12.52;;;5.50;;
8982;SDS011;20979;59.850;10.660;2023-06-14T07:55:37;7.95;;;5.25;;
8982;SDS011;20979;59.850;10.660;2023-06-14T07:58:07;6.18;;;5.40;;
8982;SDS011;20979;59.850;10.660;2023-06-14T08:00:35;5.50;;;4.63;;
8982;SDS011;20979;59.850;10.660;2023-06-14T08:03:09;7.35;;;5.15;;
8982;SDS011;20979;59.850;10.660;2023-06-14T08:05:36;8.10;;;5.15;;
8982;SDS011;20979;59.850;10.660;2023-06-14T08:08:04;8.82;;;5.53;;
8982;SDS011;20979;59.850;10.660;2023-06-14T08:10:32;5.93;;;5.43;;
8982;SDS011;20979;59.850;10.660;2023-06-14T08:22:21;6.20;;;5.28;;
8982;SDS011;20979;59.850;10.660;2023-06-14T08:25:08;11.15;;;5.43;;
8982;SDS011;20979;59.850;10.660;2023-06-14T08:27:37;7.43;;;5.70;;
8982;SDS011;20979;59.850;10.660;2023-06-14T08:30:05;6.53;;;5.38;;
8982;SDS011;20979;59.850;10.660;2023-06-14T08:32:34;6.93;;;5.25;;
8982;SDS011;20979;59.850;10.660;2023-06-14T08:35:01;5.65;;;4.90;;
8982;SDS011;20979;59.850;10.660;2023-06-14T08:37:31;6.57;;;5.00;;
8982;SDS011;20979;59.850;10.660;2023-06-14T08:39:59;7.07;;;5.28;;
8982;SDS011;20979;59.850;10.660;2023-06-14T08:48:42;6.03;;;4.80;;
8982;SDS011;20979;59.850;10.660;2023-06-14T08:51:09;7.82;;;4.93;;
8982;SDS011;20979;59.850;10.660;2023-06-14T08:56:30;11.40;;;5.85;;
8982;SDS011;20979;59.850;10.660;2023-06-14T08:58:59;9.35;;;4.82;;
8982;SDS011;20979;59.850;10.660;2023-06-14T09:01:34;9.00;;;5.10;;
8982;SDS011;20979;59.850;10.660;2023-06-14T09:04:01;7.93;;;5.00;;
8982;SDS011;20979;59.850;10.660;2023-06-14T09:06:43;8.98;;;5.35;;
8982;SDS011;20979;59.850;10.660;2023-06-14T09:09:10;11.65;;;5.30;;
8982;SDS011;20979;59.850;10.660;2023-06-14T09:11:44;7.45;;;4.93;;
8982;SDS011;20979;59.850;10.660;2023-06-14T09:14:13;8.52;;;5.10;;
8982;SDS011;20979;59.850;10.660;2023-06-14T09:16:41;5.45;;;4.72;;
8982;SDS011;20979;59.850;10.660;2023-06-14T09:19:13;7.82;;;5.00;;
8982;SDS011;20979;59.850;10.660;2023-06-14T09:21:47;6.90;;;4.65;;
8982;SDS011;20979;59.850;10.660;2023-06-14T09:24:20;7.40;;;4.93;;
8982;SDS011;20979;59.850;10.660;2023-06-14T09:26:53;9.20;;;4.75;;
8982;SDS011;20979;59.850;10.660;2023-06-14T09:29:20;10.57;;;4.60;;
8982;SDS011;20979;59.850;10.660;2023-06-14T09:32:02;8.30;;;4.35;;
8982;SDS011;20979;59.850;10.660;2023-06-14T09:34:31;8.77;;;4.78;;
8982;SDS011;20979;59.850;10.660;2023-06-14T09:37:00;10.65;;;5.10;;
8982;SDS011;20979;59.850;10.660;2023-06-14T09:48:34;7.13;;;4.53;;
8982;SDS011;20979;59.850;10.660;2023-06-14T09:51:08;5.82;;;4.20;;
8982;SDS011;20979;59.850;10.660;2023-06-14T09:53:36;10.77;;;4.60;;
8982;SDS011;20979;59.850;10.660;2023-06-14T09:56:06;6.28;;;4.05;;
8982;SDS011;20979;59.850;10.660;2023-06-14T09:58:34;5.50;;;4.15;;
8982;SDS011;20979;59.850;10.660;2023-06-14T10:01:13;8.50;;;4.10;;
8982;SDS011;20979;59.850;10.660;2023-06-14T10:03:41;6.80;;;4.10;;
8982;SDS011;20979;59.850;10.660;2023-06-14T10:09:18;4.78;;;3.58;;
8982;SDS011;20979;59.850;10.660;2023-06-14T10:12:00;5.93;;;3.90;;
8982;SDS011;20979;59.850;10.660;2023-06-14T10:14:40;8.10;;;3.25;;
8982;SDS011;20979;59.850;10.660;2023-06-14T10:23:16;4.50;;;3.40;;
8982;SDS011;20979;59.850;10.660;2023-06-14T10:25:58;3.70;;;3.40;;
8982;SDS011;20979;59.850;10.660;2023-06-14T10:34:22;3.78;;;3.30;;
8982;SDS011;20979;59.850;10.660;2023-06-14T10:37:13;2.78;;;2.58;;
8982;SDS011;20979;59.850;10.660;2023-06-14T10:39:44;3.50;;;2.90;;
8982;SDS011;20979;59.850;10.660;2023-06-14T10:42:15;3.20;;;2.47;;
8982;SDS011;20979;59.850;10.660;2023-06-14T10:44:56;2.63;;;2.42;;
8982;SDS011;20979;59.850;10.660;2023-06-14T10:47:25;3.55;;;2.45;;
8982;SDS011;20979;59.850;10.660;2023-06-14T10:50:27;2.85;;;2.65;;
8982;SDS011;20979;59.850;10.660;2023-06-14T10:53:21;3.35;;;2.50;;
8982;SDS011;20979;59.850;10.660;2023-06-14T10:55:50;3.03;;;2.72;;
8982;SDS011;20979;59.850;10.660;2023-06-14T10:58:18;2.95;;;2.60;;
8982;SDS011;20979;59.850;10.660;2023-06-14T11:00:47;3.90;;;3.30;;
8982;SDS011;20979;59.850;10.660;2023-06-14T11:06:00;4.47;;;2.70;;
8982;SDS011;20979;59.850;10.660;2023-06-14T11:08:40;4.30;;;2.95;;
8982;SDS011;20979;59.850;10.660;2023-06-14T11:11:15;3.38;;;2.70;;
8982;SDS011;20979;59.850;10.660;2023-06-14T11:13:44;2.63;;;2.42;;
8982;SDS011;20979;59.850;10.660;2023-06-14T11:16:12;3.03;;;2.83;;
8982;SDS011;20979;59.850;10.660;2023-06-14T11:18:39;5.10;;;3.00;;
8982;SDS011;20979;59.850;10.660;2023-06-14T11:21:14;3.10;;;2.90;;
8982;SDS011;20979;59.850;10.660;2023-06-14T11:23:48;2.92;;;2.63;;
8982;SDS011;20979;59.850;10.660;2023-06-14T11:26:17;3.42;;;3.13;;
8982;SDS011;20979;59.850;10.660;2023-06-14T11:28:54;4.40;;;3.10;;
8982;SDS011;20979;59.850;10.660;2023-06-14T11:31:22;4.05;;;3.08;;
8982;SDS011;20979;59.850;10.660;2023-06-14T11:33:50;5.18;;;3.20;;
8982;SDS011;20979;59.850;10.660;2023-06-14T11:36:33;3.45;;;2.80;;
8982;SDS011;20979;59.850;10.660;2023-06-14T11:39:00;4.25;;;2.78;;
8982;SDS011;20979;59.850;10.660;2023-06-14T11:41:36;4.28;;;2.90;;
8982;SDS011;20979;59.850;10.660;2023-06-14T11:44:04;3.30;;;3.00;;
8982;SDS011;20979;59.850;10.660;2023-06-14T11:46:32;3.35;;;2.83;;
8982;SDS011;20979;59.850;10.660;2023-06-14T11:49:02;3.75;;;2.88;;
8982;SDS011;20979;59.850;10.660;2023-06-14T11:51:30;3.15;;;2.72;;
8982;SDS011;20979;59.850;10.660;2023-06-14T11:53:57;3.85;;;3.13;;
8982;SDS011;20979;59.850;10.660;2023-06-14T11:56:25;3.83;;;3.00;;
8982;SDS011;20979;59.850;10.660;2023-06-14T11:58:54;3.40;;;2.70;;
8982;SDS011;20979;59.850;10.660;2023-06-14T12:01:22;3.38;;;2.60;;
8982;SDS011;20979;59.850;10.660;2023-06-14T12:03:51;3.10;;;2.80;;
8982;SDS011;20979;59.850;10.660;2023-06-14T12:06:25;4.95;;;3.15;;
8982;SDS011;20979;59.850;10.660;2023-06-14T12:09:06;3.10;;;2.80;;
8982;SDS011;20979;59.850;10.660;2023-06-14T12:11:38;3.42;;;2.78;;
8982;SDS011;20979;59.850;10.660;2023-06-14T12:14:07;2.97;;;2.78;;
8982;SDS011;20979;59.850;10.660;2023-06-14T12:16:37;3.78;;;2.83;;
8982;SDS011;20979;59.850;10.660;2023-06-14T12:19:12;2.75;;;2.55;;
8982;SDS011;20979;59.850;10.660;2023-06-14T12:21:40;3.72;;;2.90;;
8982;SDS011;20979;59.850;10.660;2023-06-14T12:24:07;2.70;;;2.50;;
8982;SDS011;20979;59.850;10.660;2023-06-14T12:26:37;2.90;;;2.70;;
8982;SDS011;20979;59.850;10.660;2023-06-14T12:29:07;3.38;;;2.80;;
8982;SDS011;20979;59.850;10.660;2023-06-14T12:31:35;2.72;;;2.42;;
8982;SDS011;20979;59.850;10.660;2023-06-14T12:34:04;2.90;;;2.50;;
8982;SDS011;20979;59.850;10.660;2023-06-14T12:36:31;4.25;;;2.67;;
8982;SDS011;20979;59.850;10.660;2023-06-14T12:39:00;2.95;;;2.60;;
8982;SDS011;20979;59.850;10.660;2023-06-14T12:41:29;3.75;;;2.90;;
8982;SDS011;20979;59.850;10.660;2023-06-14T12:43:56;3.45;;;2.70;;
8982;SDS011;20979;59.850;10.660;2023-06-14T12:46:26;2.72;;;2.53;;
8982;SDS011;20979;59.850;10.660;2023-06-14T12:48:59;2.88;;;2.58;;
8982;SDS011;20979;59.850;10.660;2023-06-14T12:51:27;2.85;;;2.65;;
8982;SDS011;20979;59.850;10.660;2023-06-14T12:53:54;2.72;;;2.53;;
8982;SDS011;20979;59.850;10.660;2023-06-14T12:56:34;2.70;;;2.50;;
8982;SDS011;20979;59.850;10.660;2023-06-14T12:59:02;2.63;;;2.42;;
8982;SDS011;20979;59.850;10.660;2023-06-14T13:01:30;2.90;;;2.70;;
8982;SDS011;20979;59.850;10.660;2023-06-14T13:03:58;3.05;;;2.67;;
8982;SDS011;20979;59.850;10.660;2023-06-14T13:06:25;4.05;;;2.70;;
8982;SDS011;20979;59.850;10.660;2023-06-14T13:09:00;3.22;;;2.67;;
8982;SDS011;20979;59.850;10.660;2023-06-14T13:11:34;3.03;;;2.78;;
8982;SDS011;20979;59.850;10.660;2023-06-14T13:14:02;2.70;;;2.50;;
8982;SDS011;20979;59.850;10.660;2023-06-14T13:16:31;2.78;;;2.42;;
8982;SDS011;20979;59.850;10.660;2023-06-14T13:18:58;3.10;;;2.90;;
8982;SDS011;20979;59.850;10.660;2023-06-14T13:21:26;2.58;;;2.38;;
8982;SDS011;20979;59.850;10.660;2023-06-14T13:23:53;3.00;;;2.70;;
8982;SDS011;20979;59.850;10.660;2023-06-14T13:26:21;3.30;;;3.00;;
8982;SDS011;20979;59.850;10.660;2023-06-14T13:28:48;3.28;;;2.47;;
8982;SDS011;20979;59.850;10.660;2023-06-14T13:31:21;3.40;;;3.10;;
8982;SDS011;20979;59.850;10.660;2023-06-14T13:33:50;3.20;;;2.75;;
8982;SDS011;20979;59.850;10.660;2023-06-14T13:36:17;2.75;;;2.50;;
8982;SDS011;20979;59.850;10.660;2023-06-14T13:38:45;3.00;;;2.80;;
8982;SDS011;20979;59.850;10.660;2023-06-14T13:41:12;3.00;;;2.80;;
8982;SDS011;20979;59.850;10.660;2023-06-14T13:43:40;3.13;;;2.85;;
8982;SDS011;20979;59.850;10.660;2023-06-14T13:46:07;3.30;;;3.00;;
8982;SDS011;20979;59.850;10.660;2023-06-14T13:48:45;4.95;;;2.78;;
8982;SDS011;20979;59.850;10.660;2023-06-14T13:51:15;3.10;;;2.90;;
8982;SDS011;20979;59.850;10.660;2023-06-14T13:53:43;2.60;;;2.40;;
8982;SDS011;20979;59.850;10.660;2023-06-14T13:56:10;3.28;;;2.65;;
8982;SDS011;20979;59.850;10.660;2023-06-14T13:58:38;3.20;;;2.90;;
8982;SDS011;20979;59.850;10.660;2023-06-14T14:01:05;3.33;;;2.78;;
8982;SDS011;20979;59.850;10.660;2023-06-14T14:03:32;3.00;;;2.80;;
8982;SDS011;20979;59.850;10.660;2023-06-14T14:06:00;4.93;;;2.97;;
8982;SDS011;20979;59.850;10.660;2023-06-14T14:08:29;4.38;;;2.85;;
8982;SDS011;20979;59.850;10.660;2023-06-14T14:10:57;2.90;;;2.70;;
8982;SDS011;20979;59.850;10.660;2023-06-14T14:13:24;3.03;;;2.72;;
8982;SDS011;20979;59.850;10.660;2023-06-14T14:15:52;2.97;;;2.70;;
8982;SDS011;20979;59.850;10.660;2023-06-14T14:18:19;5.72;;;3.05;;
8982;SDS011;20979;59.850;10.660;2023-06-14T14:20:47;4.28;;;2.90;;
8982;SDS011;20979;59.850;10.660;2023-06-14T14:23:14;3.10;;;2.90;;
8982;SDS011;20979;59.850;10.660;2023-06-14T14:25:43;5.13;;;3.00;;
8982;SDS011;20979;59.850;10.660;2023-06-14T14:28:10;3.78;;;3.00;;
8982;SDS011;20979;59.850;10.660;2023-06-14T14:30:39;4.03;;;3.00;;
8982;SDS011;20979;59.850;10.660;2023-06-14T14:33:06;3.08;;;2.78;;
8982;SDS011;20979;59.850;10.660;2023-06-14T14:35:35;3.72;;;2.95;;
8982;SDS011;20979;59.850;10.660;2023-06-14T14:38:02;4.18;;;2.88;;
8982;SDS011;20979;59.850;10.660;2023-06-14T14:40:30;4.57;;;3.10;;
8982;SDS011;20979;59.850;10.660;2023-06-14T14:43:01;5.50;;;3.22;;
8982;SDS011;20979;59.850;10.660;2023-06-14T14:45:30;5.90;;;3.00;;
8982;SDS011;20979;59.850;10.660;2023-06-14T14:47:57;2.90;;;2.70;;
8982;SDS011;20979;59.850;10.660;2023-06-14T14:50:28;4.35;;;2.97;;
8982;SDS011;20979;59.850;10.660;2023-06-14T14:52:55;3.67;;;2.92;;
8982;SDS011;20979;59.850;10.660;2023-06-14T14:55:23;4.53;;;2.88;;
8982;SDS011;20979;59.850;10.660;2023-06-14T14:57:50;6.93;;;2.75;;
8982;SDS011;20979;59.850;10.660;2023-06-14T15:00:19;3.50;;;3.20;;
8982;SDS011;20979;59.850;10.660;2023-06-14T15:02:47;3.30;;;2.70;;
8982;SDS011;20979;59.850;10.660;2023-06-14T15:05:15;3.10;;;2.85;;
8982;SDS011;20979;59.850;10.660;2023-06-14T15:07:42;3.28;;;3.00;;
8982;SDS011;20979;59.850;10.660;2023-06-14T15:10:10;3.20;;;3.00;;
8982;SDS011;20979;59.850;10.660;2023-06-14T15:12:38;3.25;;;3.00;;
8982;SDS011;20979;59.850;10.660;2023-06-14T15:15:06;4.82;;;2.97;;
8982;SDS011;20979;59.850;10.660;2023-06-14T15:17:35;4.00;;;3.08;;
8982;SDS011;20979;59.850;10.660;2023-06-14T15:20:03;3.50;;;3.13;;
8982;SDS011;20979;59.850;10.660;2023-06-14T15:22:32;7.32;;;3.08;;
8982;SDS011;20979;59.850;10.660;2023-06-14T15:24:59;2.97;;;2.78;;
8982;SDS011;20979;59.850;10.660;2023-06-14T15:27:28;4.95;;;3.08;;
8982;SDS011;20979;59.850;10.660;2023-06-14T15:29:56;3.38;;;3.08;;
8982;SDS011;20979;59.850;10.660;2023-06-14T15:32:23;4.43;;;2.90;;
8982;SDS011;20979;59.850;10.660;2023-06-14T15:34:52;2.92;;;2.72;;
8982;SDS011;20979;59.850;10.660;2023-06-14T15:37:19;4.43;;;3.25;;
8982;SDS011;20979;59.850;10.660;2023-06-14T15:39:47;3.50;;;2.75;;
8982;SDS011;20979;59.850;10.660;2023-06-14T15:42:14;3.10;;;2.88;;
8982;SDS011;20979;59.850;10.660;2023-06-14T15:44:41;5.05;;;3.13;;
8982;SDS011;20979;59.850;10.660;2023-06-14T15:47:09;3.03;;;2.80;;
8982;SDS011;20979;59.850;10.660;2023-06-14T15:49:36;3.50;;;2.67;;
8982;SDS011;20979;59.850;10.660;2023-06-14T15:52:06;3.20;;;2.90;;
8982;SDS011;20979;59.850;10.660;2023-06-14T15:54:34;4.70;;;3.13;;
8982;SDS011;20979;59.850;10.660;2023-06-14T15:57:02;3.53;;;3.20;;
8982;SDS011;20979;59.850;10.660;2023-06-14T15:59:31;3.10;;;2.90;;
8982;SDS011;20979;59.850;10.660;2023-06-14T16:01:59;5.25;;;2.90;;
8982;SDS011;20979;59.850;10.660;2023-06-14T16:04:27;3.03;;;2.83;;
8982;SDS011;20979;59.850;10.660;2023-06-14T16:06:54;3.10;;;2.90;;
8982;SDS011;20979;59.850;10.660;2023-06-14T16:09:23;3.15;;;2.95;;
8982;SDS011;20979;59.850;10.660;2023-06-14T16:11:51;3.40;;;3.10;;
8982;SDS011;20979;59.850;10.660;2023-06-14T16:14:20;4.53;;;3.30;;
8982;SDS011;20979;59.850;10.660;2023-06-14T16:16:47;4.85;;;2.70;;
8982;SDS011;20979;59.850;10.660;2023-06-14T16:19:15;3.70;;;3.15;;
8982;SDS011;20979;59.850;10.660;2023-06-14T16:21:43;3.53;;;3.05;;
8982;SDS011;20979;59.850;10.660;2023-06-14T16:24:10;3.03;;;2.83;;
8982;SDS011;20979;59.850;10.660;2023-06-14T16:26:41;3.40;;;2.90;;
8982;SDS011;20979;59.850;10.660;2023-06-14T16:29:08;2.83;;;2.63;;
8982;SDS011;20979;59.850;10.660;2023-06-14T16:31:36;3.67;;;2.80;;
8982;SDS011;20979;59.850;10.660;2023-06-14T16:34:03;3.17;;;2.90;;
8982;SDS011;20979;59.850;10.660;2023-06-14T16:36:36;3.70;;;2.90;;
8982;SDS011;20979;59.850;10.660;2023-06-14T16:39:03;3.75;;;3.22;;
8982;SDS011;20979;59.850;10.660;2023-06-14T16:41:31;3.72;;;3.03;;
8982;SDS011;20979;59.850;10.660;2023-06-14T16:44:00;3.90;;;2.95;;
8982;SDS011;20979;59.850;10.660;2023-06-14T16:46:29;3.92;;;2.80;;
8982;SDS011;20979;59.850;10.660;2023-06-14T16:48:59;3.60;;;3.05;;
8982;SDS011;20979;59.850;10.660;2023-06-14T16:51:27;3.13;;;2.65;;
8982;SDS011;20979;59.850;10.660;2023-06-14T16:53:55;3.60;;;3.30;;
8982;SDS011;20979;59.850;10.660;2023-06-14T16:56:22;4.55;;;2.85;;
8982;SDS011;20979;59.850;10.660;2023-06-14T16:58:51;6.20;;;3.00;;
8982;SDS011;20979;59.850;10.660;2023-06-14T17:01:21;3.88;;;2.67;;
8982;SDS011;20979;59.850;10.660;2023-06-14T17:03:48;3.60;;;3.08;;
8982;SDS011;20979;59.850;10.660;2023-06-14T17:06:16;3.28;;;2.97;;
8982;SDS011;20979;59.850;10.660;2023-06-14T17:08:45;4.20;;;2.90;;
8982;SDS011;20979;59.850;10.660;2023-06-14T17:11:13;3.78;;;2.88;;
8982;SDS011;20979;59.850;10.660;2023-06-14T17:13:43;3.28;;;2.97;;
8982;SDS011;20979;59.850;10.660;2023-06-14T17:16:10;3.83;;;3.00;;
8982;SDS011;20979;59.850;10.660;2023-06-14T17:18:40;3.05;;;2.78;;
8982;SDS011;20979;59.850;10.660;2023-06-14T17:21:07;3.10;;;2.80;;
8982;SDS011;20979;59.850;10.660;2023-06-14T17:23:48;4.05;;;2.90;;
8982;SDS011;20979;59.850;10.660;2023-06-14T17:26:15;4.88;;;3.15;;
8982;SDS011;20979;59.850;10.660;2023-06-14T17:28:42;4.90;;;3.00;;
8982;SDS011;20979;59.850;10.660;2023-06-14T17:31:10;3.03;;;2.78;;
8982;SDS011;20979;59.850;10.660;2023-06-14T17:33:39;2.80;;;2.60;;
8982;SDS011;20979;59.850;10.660;2023-06-14T17:36:08;3.88;;;3.05;;
8982;SDS011;20979;59.850;10.660;2023-06-14T17:38:35;5.40;;;2.90;;
8982;SDS011;20979;59.850;10.660;2023-06-14T17:41:02;3.45;;;2.90;;
8982;SDS011;20979;59.850;10.660;2023-06-14T17:43:34;4.57;;;2.92;;
8982;SDS011;20979;59.850;10.660;2023-06-14T17:46:01;2.97;;;2.75;;
8982;SDS011;20979;59.850;10.660;2023-06-14T17:48:33;4.57;;;3.08;;
8982;SDS011;20979;59.850;10.660;2023-06-14T17:51:01;3.97;;;2.90;;
8982;SDS011;20979;59.850;10.660;2023-06-14T17:53:30;2.95;;;2.75;;